sensor_id;sensor_type;location;lat;lon;timestamp;P1;durP1;ratioP1;P2;durP2;ratioP2
75429;SDS011;64127;51.488;5.462;2022-11-15T00:02:23;20.10;;;16.43;;
75429;SDS011;64127;51.488;5.462;2022-11-15T00:04:55;18.67;;;16.43;;
75429;SDS011;64127;51.488;5.462;2022-11-15T00:07:27;21.07;;;16.67;;
75429;SDS011;64127;51.488;5.462;2022-11-15T00:10:19;18.63;;;16.43;;
75429;SDS011;64127;51.488;5.462;2022-11-15T00:12:51;21.10;;;16.87;;
75429;SDS011;64127;51.488;5.462;2022-11-15T00:15:23;18.50;;;16.50;;
75429;SDS011;64127;51.488;5.462;2022-11-15T00:17:54;18.40;;;16.20;;
75429;SDS011;64127;51.488;5.462;2022-11-15T00:20:26;16.40;;;14.60;;
75429;SDS011;64127;51.488;5.462;2022-11-15T00:22:58;18.67;;;15.53;;
75429;SDS011;64127;51.488;5.462;2022-11-15T00:25:31;17.33;;;15.47;;
75429;SDS011;64127;51.488;5.462;2022-11-15T00:28:03;18.10;;;16.20;;
75429;SDS011;64127;51.488;5.462;2022-11-15T00:30:36;18.10;;;16.13;;
75429;SDS011;64127;51.488;5.462;2022-11-15T00:33:08;18.33;;;15.40;;
75429;SDS011;64127;51.488;5.462;2022-11-15T00:35:41;17.60;;;15.50;;
75429;SDS011;64127;51.488;5.462;2022-11-15T00:38:13;18.30;;;15.03;;
75429;SDS011;64127;51.488;5.462;2022-11-15T00:40:45;16.63;;;14.93;;
75429;SDS011;64127;51.488;5.462;2022-11-15T00:43:17;17.40;;;15.60;;
75429;SDS011;64127;51.488;5.462;2022-11-15T00:45:49;24.03;;;15.67;;
75429;SDS011;64127;51.488;5.462;2022-11-15T00:48:21;16.97;;;15.20;;
75429;SDS011;64127;51.488;5.462;2022-11-15T00:50:53;16.50;;;14.80;;
75429;SDS011;64127;51.488;5.462;2022-11-15T00:53:25;16.87;;;14.87;;
75429;SDS011;64127;51.488;5.462;2022-11-15T00:55:57;17.20;;;14.87;;
75429;SDS011;64127;51.488;5.462;2022-11-15T00:58:29;17.13;;;14.97;;
75429;SDS011;64127;51.488;5.462;2022-11-15T01:01:05;17.90;;;15.97;;
75429;SDS011;64127;51.488;5.462;2022-11-15T01:03:41;17.90;;;15.47;;
75429;SDS011;64127;51.488;5.462;2022-11-15T01:06:13;17.23;;;15.43;;
75429;SDS011;64127;51.488;5.462;2022-11-15T01:08:45;17.50;;;15.70;;
75429;SDS011;64127;51.488;5.462;2022-11-15T01:11:17;17.60;;;15.70;;
75429;SDS011;64127;51.488;5.462;2022-11-15T01:13:49;17.40;;;15.60;;
75429;SDS011;64127;51.488;5.462;2022-11-15T01:16:21;17.27;;;15.47;;
75429;SDS011;64127;51.488;5.462;2022-11-15T01:18:53;20.03;;;16.67;;
75429;SDS011;64127;51.488;5.462;2022-11-15T01:21:25;18.90;;;16.63;;
75429;SDS011;64127;51.488;5.462;2022-11-15T01:23:57;17.73;;;15.43;;
75429;SDS011;64127;51.488;5.462;2022-11-15T01:26:29;17.13;;;15.33;;
75429;SDS011;64127;51.488;5.462;2022-11-15T01:29:01;18.30;;;16.00;;
75429;SDS011;64127;51.488;5.462;2022-11-15T01:31:33;17.43;;;15.60;;
75429;SDS011;64127;51.488;5.462;2022-11-15T01:34:05;18.20;;;15.93;;
75429;SDS011;64127;51.488;5.462;2022-11-15T01:36:37;19.30;;;16.13;;
75429;SDS011;64127;51.488;5.462;2022-11-15T01:39:09;20.10;;;16.80;;
75429;SDS011;64127;51.488;5.462;2022-11-15T01:41:41;19.03;;;15.80;;
75429;SDS011;64127;51.488;5.462;2022-11-15T01:47:15;17.67;;;15.53;;
75429;SDS011;64127;51.488;5.462;2022-11-15T01:49:55;17.87;;;15.90;;
75429;SDS011;64127;51.488;5.462;2022-11-15T01:52:30;20.53;;;16.70;;
75429;SDS011;64127;51.488;5.462;2022-11-15T01:57:42;18.83;;;16.53;;
75429;SDS011;64127;51.488;5.462;2022-11-15T02:00:19;20.97;;;17.90;;
75429;SDS011;64127;51.488;5.462;2022-11-15T02:02:51;19.67;;;17.37;;
75429;SDS011;64127;51.488;5.462;2022-11-15T02:05:23;20.60;;;17.63;;
75429;SDS011;64127;51.488;5.462;2022-11-15T02:07:55;19.33;;;17.23;;
75429;SDS011;64127;51.488;5.462;2022-11-15T02:10:27;19.70;;;17.60;;
75429;SDS011;64127;51.488;5.462;2022-11-15T02:12:59;19.27;;;17.20;;
75429;SDS011;64127;51.488;5.462;2022-11-15T02:15:34;21.93;;;17.17;;
75429;SDS011;64127;51.488;5.462;2022-11-15T02:18:41;20.17;;;17.20;;
75429;SDS011;64127;51.488;5.462;2022-11-15T02:28:13;22.13;;;17.63;;
75429;SDS011;64127;51.488;5.462;2022-11-15T02:31:00;22.73;;;17.20;;
75429;SDS011;64127;51.488;5.462;2022-11-15T02:39:49;22.33;;;17.60;;
75429;SDS011;64127;51.488;5.462;2022-11-15T02:42:47;21.73;;;18.43;;
75429;SDS011;64127;51.488;5.462;2022-11-15T02:45:46;22.20;;;18.43;;
75429;SDS011;64127;51.488;5.462;2022-11-15T02:48:24;20.67;;;17.93;;
75429;SDS011;64127;51.488;5.462;2022-11-15T02:50:57;22.40;;;18.47;;
75429;SDS011;64127;51.488;5.462;2022-11-15T02:53:31;20.80;;;17.50;;
75429;SDS011;64127;51.488;5.462;2022-11-15T02:56:03;21.03;;;18.03;;
75429;SDS011;64127;51.488;5.462;2022-11-15T03:01:41;20.93;;;17.70;;
75429;SDS011;64127;51.488;5.462;2022-11-15T03:07:19;21.27;;;17.53;;
75429;SDS011;64127;51.488;5.462;2022-11-15T03:10:26;20.00;;;17.40;;
75429;SDS011;64127;51.488;5.462;2022-11-15T03:17:12;20.83;;;18.07;;
75429;SDS011;64127;51.488;5.462;2022-11-15T03:22:18;20.77;;;18.37;;
75429;SDS011;64127;51.488;5.462;2022-11-15T03:24:59;23.73;;;18.40;;
75429;SDS011;64127;51.488;5.462;2022-11-15T03:27:38;23.10;;;18.50;;
75429;SDS011;64127;51.488;5.462;2022-11-15T03:30:14;22.37;;;19.03;;
75429;SDS011;64127;51.488;5.462;2022-11-15T03:32:52;25.73;;;19.23;;
75429;SDS011;64127;51.488;5.462;2022-11-15T03:35:30;23.60;;;20.07;;
75429;SDS011;64127;51.488;5.462;2022-11-15T03:41:00;24.67;;;20.33;;
75429;SDS011;64127;51.488;5.462;2022-11-15T03:46:43;22.77;;;19.50;;
75429;SDS011;64127;51.488;5.462;2022-11-15T03:49:33;26.83;;;20.37;;
75429;SDS011;64127;51.488;5.462;2022-11-15T03:52:09;28.50;;;22.07;;
75429;SDS011;64127;51.488;5.462;2022-11-15T03:54:55;26.70;;;21.90;;
75429;SDS011;64127;51.488;5.462;2022-11-15T03:57:28;25.93;;;20.57;;
75429;SDS011;64127;51.488;5.462;2022-11-15T04:00:00;26.10;;;21.37;;
75429;SDS011;64127;51.488;5.462;2022-11-15T04:02:32;25.23;;;20.63;;
75429;SDS011;64127;51.488;5.462;2022-11-15T04:05:04;27.77;;;21.37;;
75429;SDS011;64127;51.488;5.462;2022-11-15T04:07:36;29.33;;;22.00;;
75429;SDS011;64127;51.488;5.462;2022-11-15T04:10:09;28.67;;;21.33;;
75429;SDS011;64127;51.488;5.462;2022-11-15T04:12:43;24.53;;;20.53;;
75429;SDS011;64127;51.488;5.462;2022-11-15T04:15:19;22.67;;;20.00;;
75429;SDS011;64127;51.488;5.462;2022-11-15T04:17:55;24.80;;;20.97;;
75429;SDS011;64127;51.488;5.462;2022-11-15T04:20:29;26.77;;;21.00;;
75429;SDS011;64127;51.488;5.462;2022-11-15T04:23:21;29.10;;;21.33;;
75429;SDS011;64127;51.488;5.462;2022-11-15T04:26:16;28.10;;;20.13;;
75429;SDS011;64127;51.488;5.462;2022-11-15T04:28:52;25.03;;;20.70;;
75429;SDS011;64127;51.488;5.462;2022-11-15T04:31:42;24.17;;;20.93;;
75429;SDS011;64127;51.488;5.462;2022-11-15T04:34:14;23.83;;;20.67;;
75429;SDS011;64127;51.488;5.462;2022-11-15T04:36:46;27.63;;;20.47;;
75429;SDS011;64127;51.488;5.462;2022-11-15T04:39:37;21.93;;;19.43;;
75429;SDS011;64127;51.488;5.462;2022-11-15T04:42:12;23.30;;;19.53;;
75429;SDS011;64127;51.488;5.462;2022-11-15T04:44:44;24.87;;;20.07;;
75429;SDS011;64127;51.488;5.462;2022-11-15T04:47:16;22.60;;;20.03;;
75429;SDS011;64127;51.488;5.462;2022-11-15T04:49:48;23.20;;;19.93;;
75429;SDS011;64127;51.488;5.462;2022-11-15T04:52:20;24.27;;;20.40;;
75429;SDS011;64127;51.488;5.462;2022-11-15T04:54:52;23.70;;;21.17;;
75429;SDS011;64127;51.488;5.462;2022-11-15T04:57:24;25.00;;;20.80;;
75429;SDS011;64127;51.488;5.462;2022-11-15T04:59:56;24.10;;;21.07;;
75429;SDS011;64127;51.488;5.462;2022-11-15T05:02:28;23.63;;;20.77;;
75429;SDS011;64127;51.488;5.462;2022-11-15T05:05:20;26.10;;;20.43;;
75429;SDS011;64127;51.488;5.462;2022-11-15T05:07:52;22.53;;;19.07;;
75429;SDS011;64127;51.488;5.462;2022-11-15T05:10:24;25.27;;;19.70;;
75429;SDS011;64127;51.488;5.462;2022-11-15T05:12:56;23.23;;;19.93;;
75429;SDS011;64127;51.488;5.462;2022-11-15T05:15:28;25.43;;;20.87;;
75429;SDS011;64127;51.488;5.462;2022-11-15T05:18:00;24.90;;;21.47;;
75429;SDS011;64127;51.488;5.462;2022-11-15T05:20:32;24.83;;;20.57;;
75429;SDS011;64127;51.488;5.462;2022-11-15T05:23:04;23.00;;;20.00;;
75429;SDS011;64127;51.488;5.462;2022-11-15T05:25:36;26.80;;;21.03;;
75429;SDS011;64127;51.488;5.462;2022-11-15T05:28:08;22.67;;;20.23;;
75429;SDS011;64127;51.488;5.462;2022-11-15T05:30:40;22.47;;;20.03;;
75429;SDS011;64127;51.488;5.462;2022-11-15T05:33:12;24.83;;;19.20;;
75429;SDS011;64127;51.488;5.462;2022-11-15T05:35:48;24.13;;;20.53;;
75429;SDS011;64127;51.488;5.462;2022-11-15T05:38:27;22.17;;;19.07;;
75429;SDS011;64127;51.488;5.462;2022-11-15T05:41:00;24.07;;;20.90;;
75429;SDS011;64127;51.488;5.462;2022-11-15T05:43:34;22.53;;;18.40;;
75429;SDS011;64127;51.488;5.462;2022-11-15T05:46:10;24.10;;;19.33;;
75429;SDS011;64127;51.488;5.462;2022-11-15T05:48:45;21.40;;;19.07;;
75429;SDS011;64127;51.488;5.462;2022-11-15T05:51:22;22.00;;;18.93;;
75429;SDS011;64127;51.488;5.462;2022-11-15T05:53:55;23.23;;;18.63;;
75429;SDS011;64127;51.488;5.462;2022-11-15T05:56:29;22.10;;;18.07;;
75429;SDS011;64127;51.488;5.462;2022-11-15T05:59:01;22.60;;;18.60;;
75429;SDS011;64127;51.488;5.462;2022-11-15T06:01:34;24.83;;;19.17;;
75429;SDS011;64127;51.488;5.462;2022-11-15T06:04:06;21.40;;;18.83;;
75429;SDS011;64127;51.488;5.462;2022-11-15T06:06:38;21.50;;;18.10;;
75429;SDS011;64127;51.488;5.462;2022-11-15T06:09:10;25.00;;;19.07;;
75429;SDS011;64127;51.488;5.462;2022-11-15T06:11:42;22.40;;;19.00;;
75429;SDS011;64127;51.488;5.462;2022-11-15T06:14:14;23.13;;;19.67;;
75429;SDS011;64127;51.488;5.462;2022-11-15T06:16:46;22.53;;;19.63;;
75429;SDS011;64127;51.488;5.462;2022-11-15T06:19:18;26.77;;;20.73;;
75429;SDS011;64127;51.488;5.462;2022-11-15T06:21:50;23.40;;;19.90;;
75429;SDS011;64127;51.488;5.462;2022-11-15T06:24:22;24.20;;;21.70;;
75429;SDS011;64127;51.488;5.462;2022-11-15T06:26:54;24.27;;;20.17;;
75429;SDS011;64127;51.488;5.462;2022-11-15T06:29:26;22.13;;;19.73;;
75429;SDS011;64127;51.488;5.462;2022-11-15T06:31:58;21.53;;;19.27;;
75429;SDS011;64127;51.488;5.462;2022-11-15T06:34:30;25.03;;;22.43;;
75429;SDS011;64127;51.488;5.462;2022-11-15T06:37:02;22.60;;;20.23;;
75429;SDS011;64127;51.488;5.462;2022-11-15T06:39:34;20.03;;;17.83;;
75429;SDS011;64127;51.488;5.462;2022-11-15T06:42:07;18.23;;;16.20;;
75429;SDS011;64127;51.488;5.462;2022-11-15T06:44:40;20.95;;;18.70;;
75429;SDS011;64127;51.488;5.462;2022-11-15T06:47:12;18.73;;;16.77;;
75429;SDS011;64127;51.488;5.462;2022-11-15T06:49:44;17.67;;;14.73;;
75429;SDS011;64127;51.488;5.462;2022-11-15T06:52:15;16.90;;;14.23;;
75429;SDS011;64127;51.488;5.462;2022-11-15T06:54:49;17.47;;;13.83;;
75429;SDS011;64127;51.488;5.462;2022-11-15T06:57:21;15.73;;;14.13;;
75429;SDS011;64127;51.488;5.462;2022-11-15T06:59:53;19.60;;;13.87;;
75429;SDS011;64127;51.488;5.462;2022-11-15T07:02:25;14.90;;;13.37;;
75429;SDS011;64127;51.488;5.462;2022-11-15T07:04:57;14.83;;;13.20;;
75429;SDS011;64127;51.488;5.462;2022-11-15T07:07:29;13.50;;;12.07;;
75429;SDS011;64127;51.488;5.462;2022-11-15T07:10:01;17.13;;;13.37;;
75429;SDS011;64127;51.488;5.462;2022-11-15T07:12:33;15.30;;;13.20;;
75429;SDS011;64127;51.488;5.462;2022-11-15T07:15:05;14.20;;;12.50;;
75429;SDS011;64127;51.488;5.462;2022-11-15T07:17:38;15.97;;;13.27;;
75429;SDS011;64127;51.488;5.462;2022-11-15T07:20:10;16.67;;;13.53;;
75429;SDS011;64127;51.488;5.462;2022-11-15T07:22:44;15.67;;;14.00;;
75429;SDS011;64127;51.488;5.462;2022-11-15T07:25:16;18.03;;;15.13;;
75429;SDS011;64127;51.488;5.462;2022-11-15T07:27:54;19.30;;;15.60;;
75429;SDS011;64127;51.488;5.462;2022-11-15T07:30:27;17.53;;;15.63;;
75429;SDS011;64127;51.488;5.462;2022-11-15T07:33:00;17.50;;;15.60;;
75429;SDS011;64127;51.488;5.462;2022-11-15T07:35:32;19.43;;;15.97;;
75429;SDS011;64127;51.488;5.462;2022-11-15T07:38:04;20.67;;;16.17;;
75429;SDS011;64127;51.488;5.462;2022-11-15T07:40:36;19.20;;;15.87;;
75429;SDS011;64127;51.488;5.462;2022-11-15T07:43:08;17.40;;;15.27;;
75429;SDS011;64127;51.488;5.462;2022-11-15T07:45:43;19.13;;;15.63;;
75429;SDS011;64127;51.488;5.462;2022-11-15T07:48:16;19.40;;;15.83;;
75429;SDS011;64127;51.488;5.462;2022-11-15T07:50:48;16.60;;;14.90;;
75429;SDS011;64127;51.488;5.462;2022-11-15T07:53:20;15.50;;;13.53;;
75429;SDS011;64127;51.488;5.462;2022-11-15T07:55:52;16.63;;;13.57;;
75429;SDS011;64127;51.488;5.462;2022-11-15T07:58:26;15.37;;;12.43;;
75429;SDS011;64127;51.488;5.462;2022-11-15T08:00:58;12.73;;;11.43;;
75429;SDS011;64127;51.488;5.462;2022-11-15T08:03:33;15.47;;;12.07;;
75429;SDS011;64127;51.488;5.462;2022-11-15T08:06:06;13.20;;;11.80;;
75429;SDS011;64127;51.488;5.462;2022-11-15T08:08:38;13.43;;;11.50;;
75429;SDS011;64127;51.488;5.462;2022-11-15T08:11:10;14.80;;;11.57;;
75429;SDS011;64127;51.488;5.462;2022-11-15T08:13:42;14.13;;;11.20;;
75429;SDS011;64127;51.488;5.462;2022-11-15T08:16:13;11.77;;;10.50;;
75429;SDS011;64127;51.488;5.462;2022-11-15T08:18:45;11.97;;;10.20;;
75429;SDS011;64127;51.488;5.462;2022-11-15T08:21:19;12.03;;;10.73;;
75429;SDS011;64127;51.488;5.462;2022-11-15T08:23:52;11.30;;;10.20;;
75429;SDS011;64127;51.488;5.462;2022-11-15T08:26:24;12.07;;;10.83;;
75429;SDS011;64127;51.488;5.462;2022-11-15T08:29:00;11.83;;;10.30;;
75429;SDS011;64127;51.488;5.462;2022-11-15T08:31:32;10.87;;;9.47;;
75429;SDS011;64127;51.488;5.462;2022-11-15T08:34:04;11.50;;;10.40;;
75429;SDS011;64127;51.488;5.462;2022-11-15T08:36:37;10.73;;;9.53;;
75429;SDS011;64127;51.488;5.462;2022-11-15T08:39:16;10.47;;;8.67;;
75429;SDS011;64127;51.488;5.462;2022-11-15T08:41:48;10.80;;;8.73;;
75429;SDS011;64127;51.488;5.462;2022-11-15T08:44:20;8.87;;;7.93;;
75429;SDS011;64127;51.488;5.462;2022-11-15T08:46:52;8.00;;;7.20;;
75429;SDS011;64127;51.488;5.462;2022-11-15T08:49:24;8.07;;;7.27;;
75429;SDS011;64127;51.488;5.462;2022-11-15T08:51:55;7.90;;;7.10;;
75429;SDS011;64127;51.488;5.462;2022-11-15T08:54:27;7.30;;;6.60;;
75429;SDS011;64127;51.488;5.462;2022-11-15T08:56:59;7.10;;;6.40;;
75429;SDS011;64127;51.488;5.462;2022-11-15T08:59:31;6.90;;;6.07;;
75429;SDS011;64127;51.488;5.462;2022-11-15T09:02:03;7.27;;;5.40;;
75429;SDS011;64127;51.488;5.462;2022-11-15T09:04:36;6.30;;;5.33;;
75429;SDS011;64127;51.488;5.462;2022-11-15T09:07:11;5.60;;;4.80;;
75429;SDS011;64127;51.488;5.462;2022-11-15T09:09:44;5.20;;;4.70;;
75429;SDS011;64127;51.488;5.462;2022-11-15T09:12:16;4.73;;;4.33;;
75429;SDS011;64127;51.488;5.462;2022-11-15T09:14:48;5.73;;;4.97;;
75429;SDS011;64127;51.488;5.462;2022-11-15T09:17:20;5.10;;;4.60;;
75429;SDS011;64127;51.488;5.462;2022-11-15T09:19:55;4.60;;;4.20;;
75429;SDS011;64127;51.488;5.462;2022-11-15T09:22:27;4.37;;;3.80;;
75429;SDS011;64127;51.488;5.462;2022-11-15T09:25:00;4.13;;;3.50;;
75429;SDS011;64127;51.488;5.462;2022-11-15T09:27:32;3.90;;;3.60;;
75429;SDS011;64127;51.488;5.462;2022-11-15T09:30:04;4.13;;;3.27;;
75429;SDS011;64127;51.488;5.462;2022-11-15T09:32:36;4.07;;;3.50;;
75429;SDS011;64127;51.488;5.462;2022-11-15T09:35:09;4.30;;;3.27;;
75429;SDS011;64127;51.488;5.462;2022-11-15T09:37:41;3.40;;;3.10;;
75429;SDS011;64127;51.488;5.462;2022-11-15T09:40:14;3.47;;;3.00;;
75429;SDS011;64127;51.488;5.462;2022-11-15T09:45:25;3.20;;;2.50;;
75429;SDS011;64127;51.488;5.462;2022-11-15T09:48:48;3.20;;;2.40;;
75429;SDS011;64127;51.488;5.462;2022-11-15T09:51:39;3.40;;;1.93;;
75429;SDS011;64127;51.488;5.462;2022-11-15T09:57:33;3.40;;;1.70;;
75429;SDS011;64127;51.488;5.462;2022-11-15T10:00:20;5.73;;;2.00;;
75429;SDS011;64127;51.488;5.462;2022-11-15T10:06:05;2.90;;;1.60;;
75429;SDS011;64127;51.488;5.462;2022-11-15T10:11:35;5.13;;;1.53;;
75429;SDS011;64127;51.488;5.462;2022-11-15T10:22:40;3.97;;;1.50;;
75429;SDS011;64127;51.488;5.462;2022-11-15T10:25:21;3.70;;;1.33;;
75429;SDS011;64127;51.488;5.462;2022-11-15T10:27:57;2.07;;;1.40;;
75429;SDS011;64127;51.488;5.462;2022-11-15T10:30:54;3.53;;;1.53;;
75429;SDS011;64127;51.488;5.462;2022-11-15T10:33:36;3.13;;;1.77;;
75429;SDS011;64127;51.488;5.462;2022-11-15T10:36:14;3.13;;;1.43;;
75429;SDS011;64127;51.488;5.462;2022-11-15T10:38:53;4.53;;;1.60;;
75429;SDS011;64127;51.488;5.462;2022-11-15T10:46:39;3.90;;;1.43;;
75429;SDS011;64127;51.488;5.462;2022-11-15T10:49:19;3.60;;;1.37;;
75429;SDS011;64127;51.488;5.462;2022-11-15T10:51:56;3.20;;;1.60;;
75429;SDS011;64127;51.488;5.462;2022-11-15T10:54:30;2.47;;;1.40;;
75429;SDS011;64127;51.488;5.462;2022-11-15T10:57:15;3.27;;;1.80;;
75429;SDS011;64127;51.488;5.462;2022-11-15T11:00:01;4.97;;;1.60;;
75429;SDS011;64127;51.488;5.462;2022-11-15T11:02:56;2.83;;;1.43;;
75429;SDS011;64127;51.488;5.462;2022-11-15T11:05:34;2.67;;;1.57;;
75429;SDS011;64127;51.488;5.462;2022-11-15T11:10:54;3.43;;;1.60;;
75429;SDS011;64127;51.488;5.462;2022-11-15T11:13:37;5.17;;;1.73;;
75429;SDS011;64127;51.488;5.462;2022-11-15T11:22:17;2.97;;;1.60;;
75429;SDS011;64127;51.488;5.462;2022-11-15T11:45:19;3.43;;;1.63;;
75429;SDS011;64127;51.488;5.462;2022-11-15T11:51:28;4.57;;;1.80;;
75429;SDS011;64127;51.488;5.462;2022-11-15T12:00:22;3.47;;;1.30;;
75429;SDS011;64127;51.488;5.462;2022-11-15T12:09:16;1.93;;;1.40;;
75429;SDS011;64127;51.488;5.462;2022-11-15T12:11:56;5.10;;;1.50;;
75429;SDS011;64127;51.488;5.462;2022-11-15T12:15:12;3.03;;;1.67;;
75429;SDS011;64127;51.488;5.462;2022-11-15T12:17:59;3.47;;;1.60;;
75429;SDS011;64127;51.488;5.462;2022-11-15T12:20:34;3.13;;;1.60;;
75429;SDS011;64127;51.488;5.462;2022-11-15T12:23:16;3.23;;;1.60;;
75429;SDS011;64127;51.488;5.462;2022-11-15T12:26:11;3.07;;;1.53;;
75429;SDS011;64127;51.488;5.462;2022-11-15T12:28:56;4.67;;;1.40;;
75429;SDS011;64127;51.488;5.462;2022-11-15T12:31:41;2.73;;;1.40;;
75429;SDS011;64127;51.488;5.462;2022-11-15T12:36:53;5.67;;;2.03;;
75429;SDS011;64127;51.488;5.462;2022-11-15T12:45:46;3.77;;;1.40;;
75429;SDS011;64127;51.488;5.462;2022-11-15T12:58:52;4.23;;;1.40;;
75429;SDS011;64127;51.488;5.462;2022-11-15T13:12:11;2.13;;;1.17;;
75429;SDS011;64127;51.488;5.462;2022-11-15T13:14:58;4.43;;;1.30;;
75429;SDS011;64127;51.488;5.462;2022-11-15T13:17:53;3.73;;;1.40;;
75429;SDS011;64127;51.488;5.462;2022-11-15T13:20:30;3.60;;;1.30;;
75429;SDS011;64127;51.488;5.462;2022-11-15T13:23:11;3.03;;;1.40;;
75429;SDS011;64127;51.488;5.462;2022-11-15T13:28:47;5.17;;;1.50;;
75429;SDS011;64127;51.488;5.462;2022-11-15T13:31:27;2.70;;;1.50;;
75429;SDS011;64127;51.488;5.462;2022-11-15T13:34:24;6.47;;;1.53;;
75429;SDS011;64127;51.488;5.462;2022-11-15T13:39:53;3.87;;;1.60;;
75429;SDS011;64127;51.488;5.462;2022-11-15T13:42:25;5.33;;;1.87;;
75429;SDS011;64127;51.488;5.462;2022-11-15T13:45:01;4.33;;;1.40;;
75429;SDS011;64127;51.488;5.462;2022-11-15T13:47:35;4.20;;;1.70;;
75429;SDS011;64127;51.488;5.462;2022-11-15T13:50:11;3.50;;;1.40;;
75429;SDS011;64127;51.488;5.462;2022-11-15T13:52:45;2.57;;;1.50;;
75429;SDS011;64127;51.488;5.462;2022-11-15T13:55:20;4.70;;;1.70;;
75429;SDS011;64127;51.488;5.462;2022-11-15T13:57:58;4.00;;;1.50;;
75429;SDS011;64127;51.488;5.462;2022-11-15T14:00:41;3.07;;;1.10;;
75429;SDS011;64127;51.488;5.462;2022-11-15T14:03:16;4.40;;;1.50;;
75429;SDS011;64127;51.488;5.462;2022-11-15T14:08:39;3.10;;;1.27;;
75429;SDS011;64127;51.488;5.462;2022-11-15T14:11:32;3.20;;;1.30;;
75429;SDS011;64127;51.488;5.462;2022-11-15T14:14:11;3.13;;;1.20;;
75429;SDS011;64127;51.488;5.462;2022-11-15T14:16:48;2.60;;;0.97;;
75429;SDS011;64127;51.488;5.462;2022-11-15T14:22:07;2.73;;;1.20;;
75429;SDS011;64127;51.488;5.462;2022-11-15T14:24:47;3.63;;;1.30;;
75429;SDS011;64127;51.488;5.462;2022-11-15T14:27:54;3.23;;;1.57;;
75429;SDS011;64127;51.488;5.462;2022-11-15T14:30:45;2.13;;;1.27;;
75429;SDS011;64127;51.488;5.462;2022-11-15T14:36:05;5.83;;;1.60;;
75429;SDS011;64127;51.488;5.462;2022-11-15T14:38:58;3.33;;;1.70;;
75429;SDS011;64127;51.488;5.462;2022-11-15T14:41:33;5.57;;;1.73;;
75429;SDS011;64127;51.488;5.462;2022-11-15T14:44:10;3.83;;;1.30;;
75429;SDS011;64127;51.488;5.462;2022-11-15T14:46:43;3.43;;;1.47;;
75429;SDS011;64127;51.488;5.462;2022-11-15T14:49:15;3.90;;;1.53;;
75429;SDS011;64127;51.488;5.462;2022-11-15T14:51:47;2.70;;;1.57;;
75429;SDS011;64127;51.488;5.462;2022-11-15T14:54:19;3.07;;;1.33;;
75429;SDS011;64127;51.488;5.462;2022-11-15T14:56:51;4.67;;;1.70;;
75429;SDS011;64127;51.488;5.462;2022-11-15T14:59:23;2.20;;;1.50;;
75429;SDS011;64127;51.488;5.462;2022-11-15T15:01:55;3.23;;;1.60;;
75429;SDS011;64127;51.488;5.462;2022-11-15T15:04:27;4.77;;;1.60;;
75429;SDS011;64127;51.488;5.462;2022-11-15T15:06:59;2.70;;;1.50;;
75429;SDS011;64127;51.488;5.462;2022-11-15T15:09:31;3.70;;;1.60;;
75429;SDS011;64127;51.488;5.462;2022-11-15T15:12:04;4.00;;;1.90;;
75429;SDS011;64127;51.488;5.462;2022-11-15T15:14:52;3.17;;;1.80;;
75429;SDS011;64127;51.488;5.462;2022-11-15T15:17:24;5.07;;;1.87;;
75429;SDS011;64127;51.488;5.462;2022-11-15T15:19:56;4.47;;;1.57;;
75429;SDS011;64127;51.488;5.462;2022-11-15T15:22:28;3.87;;;1.93;;
75429;SDS011;64127;51.488;5.462;2022-11-15T15:25:01;3.07;;;1.97;;
75429;SDS011;64127;51.488;5.462;2022-11-15T15:27:35;4.57;;;2.00;;
75429;SDS011;64127;51.488;5.462;2022-11-15T15:30:07;3.30;;;2.27;;
75429;SDS011;64127;51.488;5.462;2022-11-15T15:32:40;3.50;;;1.80;;
75429;SDS011;64127;51.488;5.462;2022-11-15T15:35:13;5.23;;;1.97;;
75429;SDS011;64127;51.488;5.462;2022-11-15T15:37:47;5.50;;;2.10;;
75429;SDS011;64127;51.488;5.462;2022-11-15T15:40:21;4.73;;;1.97;;
75429;SDS011;64127;51.488;5.462;2022-11-15T15:42:55;4.73;;;1.90;;
75429;SDS011;64127;51.488;5.462;2022-11-15T15:45:27;4.55;;;2.20;;
75429;SDS011;64127;51.488;5.462;2022-11-15T15:48:00;3.73;;;2.10;;
75429;SDS011;64127;51.488;5.462;2022-11-15T15:50:33;4.60;;;2.00;;
75429;SDS011;64127;51.488;5.462;2022-11-15T15:53:06;3.20;;;1.90;;
75429;SDS011;64127;51.488;5.462;2022-11-15T15:55:39;4.10;;;2.00;;
75429;SDS011;64127;51.488;5.462;2022-11-15T15:58:11;4.93;;;2.07;;
75429;SDS011;64127;51.488;5.462;2022-11-15T16:00:43;4.53;;;2.10;;
75429;SDS011;64127;51.488;5.462;2022-11-15T16:03:15;2.87;;;1.80;;
75429;SDS011;64127;51.488;5.462;2022-11-15T16:05:47;3.37;;;1.90;;
75429;SDS011;64127;51.488;5.462;2022-11-15T16:08:22;3.73;;;2.10;;
75429;SDS011;64127;51.488;5.462;2022-11-15T16:10:57;2.37;;;1.97;;
75429;SDS011;64127;51.488;5.462;2022-11-15T16:13:29;3.70;;;2.20;;
75429;SDS011;64127;51.488;5.462;2022-11-15T16:16:01;2.33;;;2.00;;
75429;SDS011;64127;51.488;5.462;2022-11-15T16:18:33;3.40;;;2.33;;
75429;SDS011;64127;51.488;5.462;2022-11-15T16:21:05;3.83;;;2.40;;
75429;SDS011;64127;51.488;5.462;2022-11-15T16:23:39;4.17;;;2.30;;
75429;SDS011;64127;51.488;5.462;2022-11-15T16:26:14;3.03;;;2.57;;
75429;SDS011;64127;51.488;5.462;2022-11-15T16:28:58;5.20;;;2.10;;
75429;SDS011;64127;51.488;5.462;2022-11-15T16:31:30;4.17;;;2.17;;
75429;SDS011;64127;51.488;5.462;2022-11-15T16:34:02;5.33;;;2.60;;
75429;SDS011;64127;51.488;5.462;2022-11-15T16:36:34;3.83;;;2.30;;
75429;SDS011;64127;51.488;5.462;2022-11-15T16:39:09;3.33;;;2.57;;
75429;SDS011;64127;51.488;5.462;2022-11-15T16:41:44;6.00;;;2.70;;
75429;SDS011;64127;51.488;5.462;2022-11-15T16:44:17;3.00;;;2.43;;
75429;SDS011;64127;51.488;5.462;2022-11-15T16:46:50;3.60;;;2.83;;
75429;SDS011;64127;51.488;5.462;2022-11-15T16:49:22;4.20;;;3.00;;
75429;SDS011;64127;51.488;5.462;2022-11-15T16:51:54;3.97;;;2.60;;
75429;SDS011;64127;51.488;5.462;2022-11-15T16:54:26;2.83;;;2.50;;
75429;SDS011;64127;51.488;5.462;2022-11-15T16:56:58;3.73;;;2.90;;
75429;SDS011;64127;51.488;5.462;2022-11-15T16:59:30;4.13;;;2.73;;
75429;SDS011;64127;51.488;5.462;2022-11-15T17:02:11;4.80;;;2.97;;
75429;SDS011;64127;51.488;5.462;2022-11-15T17:04:43;3.10;;;2.80;;
75429;SDS011;64127;51.488;5.462;2022-11-15T17:07:15;4.50;;;3.23;;
75429;SDS011;64127;51.488;5.462;2022-11-15T17:09:47;4.73;;;3.00;;
75429;SDS011;64127;51.488;5.462;2022-11-15T17:12:19;4.23;;;2.93;;
75429;SDS011;64127;51.488;5.462;2022-11-15T17:14:51;5.00;;;3.10;;
75429;SDS011;64127;51.488;5.462;2022-11-15T17:17:23;4.40;;;2.80;;
75429;SDS011;64127;51.488;5.462;2022-11-15T17:19:56;4.07;;;3.23;;
75429;SDS011;64127;51.488;5.462;2022-11-15T17:22:28;4.47;;;2.73;;
75429;SDS011;64127;51.488;5.462;2022-11-15T17:25:01;3.53;;;2.80;;
75429;SDS011;64127;51.488;5.462;2022-11-15T17:27:34;3.97;;;2.90;;
75429;SDS011;64127;51.488;5.462;2022-11-15T17:30:06;3.57;;;2.90;;
75429;SDS011;64127;51.488;5.462;2022-11-15T17:32:40;4.57;;;2.97;;
75429;SDS011;64127;51.488;5.462;2022-11-15T17:35:13;4.93;;;3.27;;
75429;SDS011;64127;51.488;5.462;2022-11-15T17:37:46;3.67;;;3.00;;
75429;SDS011;64127;51.488;5.462;2022-11-15T17:40:18;4.67;;;3.47;;
75429;SDS011;64127;51.488;5.462;2022-11-15T17:42:50;4.63;;;3.60;;
75429;SDS011;64127;51.488;5.462;2022-11-15T17:45:23;5.87;;;3.60;;
75429;SDS011;64127;51.488;5.462;2022-11-15T17:47:55;3.93;;;3.53;;
75429;SDS011;64127;51.488;5.462;2022-11-15T17:50:27;3.20;;;2.90;;
75429;SDS011;64127;51.488;5.462;2022-11-15T17:52:59;4.50;;;3.80;;
75429;SDS011;64127;51.488;5.462;2022-11-15T17:55:31;3.93;;;3.23;;